sensor_id;sensor_type;location;lat;lon;timestamp;temperature;humidity
33105;DHT22;19476;51.448;6.674;2023-03-01T00:01:02;10.20;34.70
33105;DHT22;19476;51.448;6.674;2023-03-01T00:03:28;10.10;35.00
33105;DHT22;19476;51.448;6.674;2023-03-01T00:05:53;10.10;34.80
33105;DHT22;19476;51.448;6.674;2023-03-01T00:08:19;10.10;34.80
33105;DHT22;19476;51.448;6.674;2023-03-01T00:10:45;10.10;34.90
33105;DHT22;19476;51.448;6.674;2023-03-01T00:13:10;10.00;34.80
33105;DHT22;19476;51.448;6.674;2023-03-01T00:15:40;10.00;34.90
33105;DHT22;19476;51.448;6.674;2023-03-01T00:18:07;10.00;35.20
33105;DHT22;19476;51.448;6.674;2023-03-01T00:20:33;9.90;35.10
33105;DHT22;19476;51.448;6.674;2023-03-01T00:22:59;9.90;35.20
33105;DHT22;19476;51.448;6.674;2023-03-01T00:25:25;9.90;35.10
33105;DHT22;19476;51.448;6.674;2023-03-01T00:27:51;9.90;35.20
33105;DHT22;19476;51.448;6.674;2023-03-01T00:30:16;9.90;35.20
33105;DHT22;19476;51.448;6.674;2023-03-01T00:32:42;9.80;35.20
33105;DHT22;19476;51.448;6.674;2023-03-01T00:35:08;9.80;35.20
33105;DHT22;19476;51.448;6.674;2023-03-01T00:37:33;9.80;35.30
33105;DHT22;19476;51.448;6.674;2023-03-01T00:39:59;9.80;35.30
33105;DHT22;19476;51.448;6.674;2023-03-01T00:42:25;9.80;35.40
33105;DHT22;19476;51.448;6.674;2023-03-01T00:44:50;9.70;35.40
33105;DHT22;19476;51.448;6.674;2023-03-01T00:47:16;9.70;35.50
33105;DHT22;19476;51.448;6.674;2023-03-01T00:49:42;9.70;35.50
33105;DHT22;19476;51.448;6.674;2023-03-01T00:52:08;9.70;35.50
33105;DHT22;19476;51.448;6.674;2023-03-01T00:54:33;9.70;35.50
33105;DHT22;19476;51.448;6.674;2023-03-01T00:56:59;9.60;35.50
33105;DHT22;19476;51.448;6.674;2023-03-01T00:59:24;9.60;35.50
33105;DHT22;19476;51.448;6.674;2023-03-01T01:01:50;9.60;35.50
33105;DHT22;19476;51.448;6.674;2023-03-01T01:04:16;9.60;35.60
33105;DHT22;19476;51.448;6.674;2023-03-01T01:06:44;9.60;35.60
33105;DHT22;19476;51.448;6.674;2023-03-01T01:09:12;9.60;35.80
33105;DHT22;19476;51.448;6.674;2023-03-01T01:11:49;9.60;35.80
33105;DHT22;19476;51.448;6.674;2023-03-01T01:14:16;9.50;35.80
33105;DHT22;19476;51.448;6.674;2023-03-01T01:16:42;9.60;35.80
33105;DHT22;19476;51.448;6.674;2023-03-01T01:19:10;9.50;35.60
33105;DHT22;19476;51.448;6.674;2023-03-01T01:21:36;9.50;35.80
33105;DHT22;19476;51.448;6.674;2023-03-01T01:24:03;9.50;35.70
33105;DHT22;19476;51.448;6.674;2023-03-01T01:26:32;9.50;35.90
33105;DHT22;19476;51.448;6.674;2023-03-01T01:28:59;9.50;35.90
33105;DHT22;19476;51.448;6.674;2023-03-01T01:31:26;9.50;35.90
33105;DHT22;19476;51.448;6.674;2023-03-01T01:33:53;9.40;35.90
33105;DHT22;19476;51.448;6.674;2023-03-01T01:36:20;9.40;35.90
33105;DHT22;19476;51.448;6.674;2023-03-01T01:38:45;9.40;35.90
33105;DHT22;19476;51.448;6.674;2023-03-01T01:41:12;9.40;35.90
33105;DHT22;19476;51.448;6.674;2023-03-01T01:46:31;9.40;36.20
33105;DHT22;19476;51.448;6.674;2023-03-01T01:49:03;9.40;36.00
33105;DHT22;19476;51.448;6.674;2023-03-01T01:51:36;9.30;36.10
33105;DHT22;19476;51.448;6.674;2023-03-01T01:54:07;9.40;36.10
33105;DHT22;19476;51.448;6.674;2023-03-01T01:56:34;9.30;36.10
33105;DHT22;19476;51.448;6.674;2023-03-01T01:59:02;9.40;36.00
33105;DHT22;19476;51.448;6.674;2023-03-01T02:01:27;9.30;36.00
33105;DHT22;19476;51.448;6.674;2023-03-01T02:03:53;9.30;36.00
33105;DHT22;19476;51.448;6.674;2023-03-01T02:06:28;9.30;35.90
33105;DHT22;19476;51.448;6.674;2023-03-01T02:08:59;9.30;36.10
33105;DHT22;19476;51.448;6.674;2023-03-01T02:11:25;9.30;36.10
33105;DHT22;19476;51.448;6.674;2023-03-01T02:13:53;9.20;36.10
33105;DHT22;19476;51.448;6.674;2023-03-01T02:16:20;9.20;36.00
33105;DHT22;19476;51.448;6.674;2023-03-01T02:18:46;9.20;36.00
33105;DHT22;19476;51.448;6.674;2023-03-01T02:24:24;9.20;36.40
33105;DHT22;19476;51.448;6.674;2023-03-01T02:26:54;9.20;36.40
33105;DHT22;19476;51.448;6.674;2023-03-01T02:29:24;9.10;36.20
33105;DHT22;19476;51.448;6.674;2023-03-01T02:31:51;9.10;36.30
33105;DHT22;19476;51.448;6.674;2023-03-01T02:34:21;9.10;36.30
33105;DHT22;19476;51.448;6.674;2023-03-01T02:39:25;9.10;36.40
33105;DHT22;19476;51.448;6.674;2023-03-01T02:41:53;9.10;36.40
33105;DHT22;19476;51.448;6.674;2023-03-01T02:44:20;9.10;36.40
33105;DHT22;19476;51.448;6.674;2023-03-01T02:46:52;9.00;36.30
33105;DHT22;19476;51.448;6.674;2023-03-01T02:49:26;9.00;36.40
33105;DHT22;19476;51.448;6.674;2023-03-01T02:57:28;9.00;36.60
33105;DHT22;19476;51.448;6.674;2023-03-01T02:59:57;9.00;36.40
33105;DHT22;19476;51.448;6.674;2023-03-01T03:02:28;9.00;36.40
33105;DHT22;19476;51.448;6.674;2023-03-01T03:05:07;9.00;36.50
33105;DHT22;19476;51.448;6.674;2023-03-01T03:07:36;9.00;36.50
33105;DHT22;19476;51.448;6.674;2023-03-01T03:10:04;9.00;36.50
33105;DHT22;19476;51.448;6.674;2023-03-01T03:12:30;9.00;36.50
33105;DHT22;19476;51.448;6.674;2023-03-01T03:14:56;8.90;36.40
33105;DHT22;19476;51.448;6.674;2023-03-01T03:17:23;8.90;36.30
33105;DHT22;19476;51.448;6.674;2023-03-01T03:19:48;8.90;36.40
33105;DHT22;19476;51.448;6.674;2023-03-01T03:22:15;8.90;36.40
33105;DHT22;19476;51.448;6.674;2023-03-01T03:24:40;8.90;36.50
33105;DHT22;19476;51.448;6.674;2023-03-01T03:27:07;8.90;36.50
33105;DHT22;19476;51.448;6.674;2023-03-01T03:29:33;8.90;36.50
33105;DHT22;19476;51.448;6.674;2023-03-01T03:31:58;8.80;36.40
33105;DHT22;19476;51.448;6.674;2023-03-01T03:34:24;8.80;36.50
33105;DHT22;19476;51.448;6.674;2023-03-01T03:36:54;8.80;36.50
33105;DHT22;19476;51.448;6.674;2023-03-01T03:39:25;8.70;36.60
33105;DHT22;19476;51.448;6.674;2023-03-01T03:41:52;8.70;36.60
33105;DHT22;19476;51.448;6.674;2023-03-01T03:44:18;8.70;36.60
33105;DHT22;19476;51.448;6.674;2023-03-01T03:46:44;8.60;36.60
33105;DHT22;19476;51.448;6.674;2023-03-01T03:49:10;8.60;36.60
33105;DHT22;19476;51.448;6.674;2023-03-01T03:51:35;8.50;36.60
33105;DHT22;19476;51.448;6.674;2023-03-01T03:54:01;8.50;36.70
33105;DHT22;19476;51.448;6.674;2023-03-01T03:56:27;8.50;36.80
33105;DHT22;19476;51.448;6.674;2023-03-01T03:58:53;8.50;36.80
33105;DHT22;19476;51.448;6.674;2023-03-01T04:01:19;8.40;36.80
33105;DHT22;19476;51.448;6.674;2023-03-01T04:03:44;8.40;36.90
33105;DHT22;19476;51.448;6.674;2023-03-01T04:06:14;8.40;37.00
33105;DHT22;19476;51.448;6.674;2023-03-01T04:08:40;8.40;37.00
33105;DHT22;19476;51.448;6.674;2023-03-01T04:11:06;8.40;37.10
33105;DHT22;19476;51.448;6.674;2023-03-01T04:13:53;8.40;37.20
33105;DHT22;19476;51.448;6.674;2023-03-01T04:16:19;8.40;37.20
33105;DHT22;19476;51.448;6.674;2023-03-01T04:18:45;8.40;37.10
33105;DHT22;19476;51.448;6.674;2023-03-01T04:21:12;8.40;37.20
33105;DHT22;19476;51.448;6.674;2023-03-01T04:23:38;8.40;37.20
33105;DHT22;19476;51.448;6.674;2023-03-01T04:26:06;8.40;37.20
33105;DHT22;19476;51.448;6.674;2023-03-01T04:28:36;8.40;37.20
33105;DHT22;19476;51.448;6.674;2023-03-01T04:31:11;8.40;37.30
33105;DHT22;19476;51.448;6.674;2023-03-01T04:33:42;8.40;37.40
33105;DHT22;19476;51.448;6.674;2023-03-01T04:36:10;8.30;37.10
33105;DHT22;19476;51.448;6.674;2023-03-01T04:38:37;8.30;37.20
33105;DHT22;19476;51.448;6.674;2023-03-01T04:41:09;8.30;37.20
33105;DHT22;19476;51.448;6.674;2023-03-01T04:43:35;8.20;37.40
33105;DHT22;19476;51.448;6.674;2023-03-01T04:46:03;8.20;37.30
33105;DHT22;19476;51.448;6.674;2023-03-01T04:48:30;8.20;38.00
33105;DHT22;19476;51.448;6.674;2023-03-01T04:50:58;8.20;37.40
33105;DHT22;19476;51.448;6.674;2023-03-01T04:53:24;8.20;37.50
33105;DHT22;19476;51.448;6.674;2023-03-01T04:55:50;8.10;37.40
33105;DHT22;19476;51.448;6.674;2023-03-01T04:58:16;8.10;37.50
33105;DHT22;19476;51.448;6.674;2023-03-01T05:00:42;8.10;37.50
33105;DHT22;19476;51.448;6.674;2023-03-01T05:03:08;8.10;37.50
33105;DHT22;19476;51.448;6.674;2023-03-01T05:05:37;8.10;37.60
33105;DHT22;19476;51.448;6.674;2023-03-01T05:08:05;8.10;37.70
33105;DHT22;19476;51.448;6.674;2023-03-01T05:10:34;8.10;37.70
33105;DHT22;19476;51.448;6.674;2023-03-01T05:13:00;8.10;37.70
33105;DHT22;19476;51.448;6.674;2023-03-01T05:15:28;8.10;37.70
33105;DHT22;19476;51.448;6.674;2023-03-01T05:17:56;8.10;37.80
33105;DHT22;19476;51.448;6.674;2023-03-01T05:20:25;8.10;37.80
33105;DHT22;19476;51.448;6.674;2023-03-01T05:22:52;8.00;38.40
33105;DHT22;19476;51.448;6.674;2023-03-01T05:25:19;8.00;37.90
33105;DHT22;19476;51.448;6.674;2023-03-01T05:27:46;8.00;37.80
33105;DHT22;19476;51.448;6.674;2023-03-01T05:30:13;8.00;37.90
33105;DHT22;19476;51.448;6.674;2023-03-01T05:32:46;8.00;37.90
33105;DHT22;19476;51.448;6.674;2023-03-01T05:35:13;8.00;38.20
33105;DHT22;19476;51.448;6.674;2023-03-01T05:37:48;8.00;38.00
33105;DHT22;19476;51.448;6.674;2023-03-01T05:40:22;8.00;38.20
33105;DHT22;19476;51.448;6.674;2023-03-01T05:42:52;7.90;38.20
33105;DHT22;19476;51.448;6.674;2023-03-01T05:45:19;7.90;38.00
33105;DHT22;19476;51.448;6.674;2023-03-01T05:47:46;7.90;37.90
33105;DHT22;19476;51.448;6.674;2023-03-01T05:50:15;7.90;37.90
33105;DHT22;19476;51.448;6.674;2023-03-01T05:52:52;7.90;38.00
33105;DHT22;19476;51.448;6.674;2023-03-01T05:55:22;7.80;38.10
33105;DHT22;19476;51.448;6.674;2023-03-01T05:57:49;7.80;38.00
33105;DHT22;19476;51.448;6.674;2023-03-01T06:00:20;7.80;38.00
33105;DHT22;19476;51.448;6.674;2023-03-01T06:02:48;7.80;38.10
33105;DHT22;19476;51.448;6.674;2023-03-01T06:05:14;7.80;38.00
33105;DHT22;19476;51.448;6.674;2023-03-01T06:07:41;7.80;38.00
33105;DHT22;19476;51.448;6.674;2023-03-01T06:10:08;7.80;38.10
33105;DHT22;19476;51.448;6.674;2023-03-01T06:12:35;7.80;38.20
33105;DHT22;19476;51.448;6.674;2023-03-01T06:15:02;7.80;38.20
33105;DHT22;19476;51.448;6.674;2023-03-01T06:17:33;7.80;38.20
33105;DHT22;19476;51.448;6.674;2023-03-01T06:20:14;7.80;38.20
33105;DHT22;19476;51.448;6.674;2023-03-01T06:22:41;7.80;38.40
33105;DHT22;19476;51.448;6.674;2023-03-01T06:25:08;7.80;38.30
33105;DHT22;19476;51.448;6.674;2023-03-01T06:27:35;7.80;38.40
33105;DHT22;19476;51.448;6.674;2023-03-01T06:30:00;7.70;38.10
33105;DHT22;19476;51.448;6.674;2023-03-01T06:32:27;7.80;38.20
33105;DHT22;19476;51.448;6.674;2023-03-01T06:34:52;7.80;38.20
33105;DHT22;19476;51.448;6.674;2023-03-01T06:37:18;7.80;38.20
33105;DHT22;19476;51.448;6.674;2023-03-01T06:39:44;7.80;38.20
33105;DHT22;19476;51.448;6.674;2023-03-01T06:42:10;7.80;38.20
33105;DHT22;19476;51.448;6.674;2023-03-01T06:44:36;7.80;38.30
33105;DHT22;19476;51.448;6.674;2023-03-01T06:47:03;7.70;38.20
33105;DHT22;19476;51.448;6.674;2023-03-01T06:49:29;7.70;38.20
33105;DHT22;19476;51.448;6.674;2023-03-01T06:51:56;7.70;38.30
33105;DHT22;19476;51.448;6.674;2023-03-01T06:54:22;7.70;38.40
33105;DHT22;19476;51.448;6.674;2023-03-01T06:56:48;7.70;38.30
33105;DHT22;19476;51.448;6.674;2023-03-01T06:59:15;7.70;38.50
33105;DHT22;19476;51.448;6.674;2023-03-01T07:01:41;7.60;38.60
33105;DHT22;19476;51.448;6.674;2023-03-01T07:04:07;7.60;38.50
33105;DHT22;19476;51.448;6.674;2023-03-01T07:06:33;7.60;38.60
33105;DHT22;19476;51.448;6.674;2023-03-01T07:08:59;7.60;38.60
33105;DHT22;19476;51.448;6.674;2023-03-01T07:11:25;7.60;38.70
33105;DHT22;19476;51.448;6.674;2023-03-01T07:13:50;7.50;38.80
33105;DHT22;19476;51.448;6.674;2023-03-01T07:16:16;7.50;38.80
33105;DHT22;19476;51.448;6.674;2023-03-01T07:18:42;7.50;38.80
33105;DHT22;19476;51.448;6.674;2023-03-01T07:21:09;7.50;38.90
33105;DHT22;19476;51.448;6.674;2023-03-01T07:23:37;7.50;39.10
33105;DHT22;19476;51.448;6.674;2023-03-01T07:26:03;7.60;39.00
33105;DHT22;19476;51.448;6.674;2023-03-01T07:28:29;7.60;39.00
33105;DHT22;19476;51.448;6.674;2023-03-01T07:31:01;7.60;39.00
33105;DHT22;19476;51.448;6.674;2023-03-01T07:33:26;7.60;39.20
33105;DHT22;19476;51.448;6.674;2023-03-01T07:35:57;7.60;39.00
33105;DHT22;19476;51.448;6.674;2023-03-01T07:38:23;7.60;39.20
33105;DHT22;19476;51.448;6.674;2023-03-01T07:40:49;7.70;39.10
33105;DHT22;19476;51.448;6.674;2023-03-01T07:43:15;7.70;39.00
33105;DHT22;19476;51.448;6.674;2023-03-01T07:45:40;7.70;39.00
33105;DHT22;19476;51.448;6.674;2023-03-01T07:48:06;7.70;39.00
33105;DHT22;19476;51.448;6.674;2023-03-01T07:50:32;7.70;39.00
33105;DHT22;19476;51.448;6.674;2023-03-01T07:52:58;7.80;39.10
33105;DHT22;19476;51.448;6.674;2023-03-01T07:55:24;7.80;39.10
33105;DHT22;19476;51.448;6.674;2023-03-01T07:57:49;7.80;39.10
33105;DHT22;19476;51.448;6.674;2023-03-01T08:00:15;7.80;39.10
33105;DHT22;19476;51.448;6.674;2023-03-01T08:02:41;7.90;39.10
33105;DHT22;19476;51.448;6.674;2023-03-01T08:05:08;7.90;39.20
33105;DHT22;19476;51.448;6.674;2023-03-01T08:07:34;8.00;39.30
33105;DHT22;19476;51.448;6.674;2023-03-01T08:10:00;8.00;39.10
33105;DHT22;19476;51.448;6.674;2023-03-01T08:12:26;8.10;39.20
33105;DHT22;19476;51.448;6.674;2023-03-01T08:14:53;8.20;39.20
33105;DHT22;19476;51.448;6.674;2023-03-01T08:17:19;8.20;39.20
33105;DHT22;19476;51.448;6.674;2023-03-01T08:19:45;8.30;39.10
33105;DHT22;19476;51.448;6.674;2023-03-01T08:22:11;8.40;39.10
33105;DHT22;19476;51.448;6.674;2023-03-01T08:24:37;8.50;39.00
33105;DHT22;19476;51.448;6.674;2023-03-01T08:27:03;8.50;38.90
33105;DHT22;19476;51.448;6.674;2023-03-01T08:29:33;8.60;38.90
33105;DHT22;19476;51.448;6.674;2023-03-01T08:31:59;8.70;38.80
33105;DHT22;19476;51.448;6.674;2023-03-01T08:34:25;8.80;38.60
33105;DHT22;19476;51.448;6.674;2023-03-01T08:36:51;8.80;38.50
33105;DHT22;19476;51.448;6.674;2023-03-01T08:39:19;8.90;38.40
33105;DHT22;19476;51.448;6.674;2023-03-01T08:41:46;9.00;38.50
33105;DHT22;19476;51.448;6.674;2023-03-01T08:44:13;9.10;38.30
33105;DHT22;19476;51.448;6.674;2023-03-01T08:46:43;9.10;38.10
33105;DHT22;19476;51.448;6.674;2023-03-01T08:49:19;9.10;38.00
33105;DHT22;19476;51.448;6.674;2023-03-01T08:51:45;9.20;37.80
33105;DHT22;19476;51.448;6.674;2023-03-01T08:54:19;9.20;37.80
33105;DHT22;19476;51.448;6.674;2023-03-01T08:56:46;9.30;37.60
33105;DHT22;19476;51.448;6.674;2023-03-01T08:59:12;9.40;37.60
33105;DHT22;19476;51.448;6.674;2023-03-01T09:01:38;9.40;37.50
33105;DHT22;19476;51.448;6.674;2023-03-01T09:04:06;9.50;37.40
33105;DHT22;19476;51.448;6.674;2023-03-01T09:06:33;9.60;37.40
33105;DHT22;19476;51.448;6.674;2023-03-01T09:08:59;9.60;37.30
33105;DHT22;19476;51.448;6.674;2023-03-01T09:11:25;9.70;37.20
33105;DHT22;19476;51.448;6.674;2023-03-01T09:13:52;9.80;37.20
33105;DHT22;19476;51.448;6.674;2023-03-01T09:16:19;9.80;37.20
33105;DHT22;19476;51.448;6.674;2023-03-01T09:18:50;9.90;37.00
33105;DHT22;19476;51.448;6.674;2023-03-01T09:21:20;10.00;36.50
33105;DHT22;19476;51.448;6.674;2023-03-01T09:23:47;10.00;36.40
33105;DHT22;19476;51.448;6.674;2023-03-01T09:26:16;10.00;36.40
33105;DHT22;19476;51.448;6.674;2023-03-01T09:28:45;10.00;36.30
33105;DHT22;19476;51.448;6.674;2023-03-01T09:31:11;10.10;36.30
33105;DHT22;19476;51.448;6.674;2023-03-01T09:33:41;10.20;36.20
33105;DHT22;19476;51.448;6.674;2023-03-01T09:36:11;10.20;36.00
33105;DHT22;19476;51.448;6.674;2023-03-01T09:38:37;10.20;35.90
33105;DHT22;19476;51.448;6.674;2023-03-01T09:41:10;10.10;35.50
33105;DHT22;19476;51.448;6.674;2023-03-01T09:43:49;10.30;35.40
33105;DHT22;19476;51.448;6.674;2023-03-01T09:46:22;10.30;35.40
33105;DHT22;19476;51.448;6.674;2023-03-01T09:48:52;10.30;35.20
33105;DHT22;19476;51.448;6.674;2023-03-01T09:51:31;10.30;34.80
33105;DHT22;19476;51.448;6.674;2023-03-01T09:53:58;10.30;34.80
33105;DHT22;19476;51.448;6.674;2023-03-01T09:56:44;10.30;34.80
33105;DHT22;19476;51.448;6.674;2023-03-01T09:59:38;10.30;34.70
33105;DHT22;19476;51.448;6.674;2023-03-01T10:04:54;10.40;34.70
33105;DHT22;19476;51.448;6.674;2023-03-01T10:07:32;10.40;34.60
33105;DHT22;19476;51.448;6.674;2023-03-01T10:10:08;10.40;34.40
33105;DHT22;19476;51.448;6.674;2023-03-01T10:12:37;10.50;34.60
33105;DHT22;19476;51.448;6.674;2023-03-01T10:15:29;10.50;34.70
33105;DHT22;19476;51.448;6.674;2023-03-01T10:18:12;10.50;34.10
33105;DHT22;19476;51.448;6.674;2023-03-01T10:21:02;10.50;34.20
33105;DHT22;19476;51.448;6.674;2023-03-01T10:23:33;10.60;34.00
33105;DHT22;19476;51.448;6.674;2023-03-01T10:29:08;10.70;34.30
33105;DHT22;19476;51.448;6.674;2023-03-01T10:34:15;10.70;34.00
33105;DHT22;19476;51.448;6.674;2023-03-01T10:36:43;10.80;34.00
33105;DHT22;19476;51.448;6.674;2023-03-01T10:39:18;10.90;34.20
33105;DHT22;19476;51.448;6.674;2023-03-01T10:41:59;10.90;34.00
33105;DHT22;19476;51.448;6.674;2023-03-01T10:44:45;11.00;33.70
33105;DHT22;19476;51.448;6.674;2023-03-01T10:47:17;11.10;33.80
33105;DHT22;19476;51.448;6.674;2023-03-01T10:52:21;11.30;33.60
33105;DHT22;19476;51.448;6.674;2023-03-01T10:54:54;11.40;33.60
33105;DHT22;19476;51.448;6.674;2023-03-01T10:57:38;11.40;33.40
33105;DHT22;19476;51.448;6.674;2023-03-01T11:03:11;11.60;33.10
33105;DHT22;19476;51.448;6.674;2023-03-01T11:05:49;11.60;32.60
33105;DHT22;19476;51.448;6.674;2023-03-01T11:08:33;11.70;32.80
33105;DHT22;19476;51.448;6.674;2023-03-01T11:11:19;11.80;32.20
33105;DHT22;19476;51.448;6.674;2023-03-01T11:13:55;11.90;32.40
33105;DHT22;19476;51.448;6.674;2023-03-01T11:16:34;11.90;32.50
33105;DHT22;19476;51.448;6.674;2023-03-01T11:21:51;12.10;32.30
33105;DHT22;19476;51.448;6.674;2023-03-01T11:24:19;12.10;31.90
33105;DHT22;19476;51.448;6.674;2023-03-01T11:26:52;12.20;32.20
33105;DHT22;19476;51.448;6.674;2023-03-01T11:29:35;12.20;32.10
33105;DHT22;19476;51.448;6.674;2023-03-01T11:32:07;12.30;31.60
33105;DHT22;19476;51.448;6.674;2023-03-01T11:40:25;12.60;31.70
33105;DHT22;19476;51.448;6.674;2023-03-01T11:45:24;12.70;30.90
33105;DHT22;19476;51.448;6.674;2023-03-01T11:48:09;13.00;31.00
33105;DHT22;19476;51.448;6.674;2023-03-01T11:50:48;12.90;30.40
33105;DHT22;19476;51.448;6.674;2023-03-01T11:53:30;12.90;30.10
33105;DHT22;19476;51.448;6.674;2023-03-01T12:04:53;13.30;30.00
33105;DHT22;19476;51.448;6.674;2023-03-01T12:07:56;13.50;29.90
33105;DHT22;19476;51.448;6.674;2023-03-01T12:10:28;13.60;29.60
33105;DHT22;19476;51.448;6.674;2023-03-01T12:21:40;14.00;29.60
33105;DHT22;19476;51.448;6.674;2023-03-01T12:26:51;14.20;29.80
33105;DHT22;19476;51.448;6.674;2023-03-01T12:29:25;14.30;29.30
33105;DHT22;19476;51.448;6.674;2023-03-01T12:46:25;15.00;28.80
33105;DHT22;19476;51.448;6.674;2023-03-01T12:51:29;15.40;29.10
33105;DHT22;19476;51.448;6.674;2023-03-01T12:53:57;15.50;28.90
33105;DHT22;19476;51.448;6.674;2023-03-01T12:56:29;15.70;28.90
33105;DHT22;19476;51.448;6.674;2023-03-01T13:02:39;16.00;28.40
33105;DHT22;19476;51.448;6.674;2023-03-01T13:08:52;16.40;28.20
33105;DHT22;19476;51.448;6.674;2023-03-01T13:11:23;16.50;28.10
33105;DHT22;19476;51.448;6.674;2023-03-01T13:13:49;16.60;28.10
33105;DHT22;19476;51.448;6.674;2023-03-01T13:19:17;16.80;27.70
33105;DHT22;19476;51.448;6.674;2023-03-01T13:21:50;16.90;27.60
33105;DHT22;19476;51.448;6.674;2023-03-01T13:29:53;17.20;27.20
33105;DHT22;19476;51.448;6.674;2023-03-01T13:32:29;17.30;27.30
33105;DHT22;19476;51.448;6.674;2023-03-01T13:35:01;17.40;27.10
33105;DHT22;19476;51.448;6.674;2023-03-01T13:37:36;17.50;26.90
33105;DHT22;19476;51.448;6.674;2023-03-01T13:42:51;17.80;26.00
33105;DHT22;19476;51.448;6.674;2023-03-01T13:45:38;17.90;26.80
33105;DHT22;19476;51.448;6.674;2023-03-01T13:48:24;18.00;26.40
33105;DHT22;19476;51.448;6.674;2023-03-01T13:50:59;18.10;25.90
33105;DHT22;19476;51.448;6.674;2023-03-01T13:53:30;18.20;25.70
33105;DHT22;19476;51.448;6.674;2023-03-01T13:56:33;18.30;26.00
33105;DHT22;19476;51.448;6.674;2023-03-01T13:59:12;18.40;25.90
33105;DHT22;19476;51.448;6.674;2023-03-01T14:01:39;18.50;26.10
33105;DHT22;19476;51.448;6.674;2023-03-01T14:04:32;18.60;26.30
33105;DHT22;19476;51.448;6.674;2023-03-01T14:07:21;18.70;25.90
33105;DHT22;19476;51.448;6.674;2023-03-01T14:09:55;18.90;25.80
33105;DHT22;19476;51.448;6.674;2023-03-01T14:15:03;19.00;26.00
33105;DHT22;19476;51.448;6.674;2023-03-01T14:20:38;19.20;25.50
33105;DHT22;19476;51.448;6.674;2023-03-01T14:23:18;19.30;25.40
33105;DHT22;19476;51.448;6.674;2023-03-01T14:25:54;19.40;24.80
33105;DHT22;19476;51.448;6.674;2023-03-01T14:28:28;19.50;25.00
33105;DHT22;19476;51.448;6.674;2023-03-01T14:30:59;19.60;24.60
33105;DHT22;19476;51.448;6.674;2023-03-01T14:33:31;19.70;24.80
33105;DHT22;19476;51.448;6.674;2023-03-01T14:36:10;19.80;24.80
33105;DHT22;19476;51.448;6.674;2023-03-01T14:38:42;19.90;24.60
33105;DHT22;19476;51.448;6.674;2023-03-01T14:43:55;20.10;24.20
33105;DHT22;19476;51.448;6.674;2023-03-01T14:46:26;20.30;24.40
33105;DHT22;19476;51.448;6.674;2023-03-01T14:48:56;20.40;24.30
33105;DHT22;19476;51.448;6.674;2023-03-01T14:51:24;20.50;24.60
33105;DHT22;19476;51.448;6.674;2023-03-01T14:53:50;20.50;24.20
33105;DHT22;19476;51.448;6.674;2023-03-01T14:56:17;20.60;23.50
33105;DHT22;19476;51.448;6.674;2023-03-01T14:58:44;20.50;23.80
33105;DHT22;19476;51.448;6.674;2023-03-01T15:01:13;20.30;23.60
33105;DHT22;19476;51.448;6.674;2023-03-01T15:03:45;20.00;23.30
33105;DHT22;19476;51.448;6.674;2023-03-01T15:06:18;19.70;23.40
33105;DHT22;19476;51.448;6.674;2023-03-01T15:08:49;19.40;23.50
33105;DHT22;19476;51.448;6.674;2023-03-01T15:11:29;19.00;23.70
33105;DHT22;19476;51.448;6.674;2023-03-01T15:13:55;18.70;23.80
33105;DHT22;19476;51.448;6.674;2023-03-01T15:16:24;18.40;24.00
33105;DHT22;19476;51.448;6.674;2023-03-01T15:18:56;18.10;24.30
33105;DHT22;19476;51.448;6.674;2023-03-01T15:21:26;17.80;24.20
33105;DHT22;19476;51.448;6.674;2023-03-01T15:26:39;17.30;24.50
33105;DHT22;19476;51.448;6.674;2023-03-01T15:29:33;17.10;24.80
33105;DHT22;19476;51.448;6.674;2023-03-01T15:32:35;16.80;24.80
33105;DHT22;19476;51.448;6.674;2023-03-01T15:35:38;16.60;25.00
33105;DHT22;19476;51.448;6.674;2023-03-01T15:38:25;16.40;25.30
33105;DHT22;19476;51.448;6.674;2023-03-01T15:40:51;16.20;25.60
33105;DHT22;19476;51.448;6.674;2023-03-01T15:43:36;16.10;25.80
33105;DHT22;19476;51.448;6.674;2023-03-01T15:46:03;15.90;25.50
33105;DHT22;19476;51.448;6.674;2023-03-01T15:48:29;15.80;25.90
33105;DHT22;19476;51.448;6.674;2023-03-01T15:50:58;15.70;26.00
33105;DHT22;19476;51.448;6.674;2023-03-01T15:53:24;15.60;26.00
33105;DHT22;19476;51.448;6.674;2023-03-01T15:55:52;15.50;26.20
33105;DHT22;19476;51.448;6.674;2023-03-01T15:58:23;15.30;26.10
33105;DHT22;19476;51.448;6.674;2023-03-01T16:00:49;15.20;26.20
33105;DHT22;19476;51.448;6.674;2023-03-01T16:03:22;15.10;26.30
33105;DHT22;19476;51.448;6.674;2023-03-01T16:05:49;15.00;26.40
33105;DHT22;19476;51.448;6.674;2023-03-01T16:08:16;15.00;26.50
33105;DHT22;19476;51.448;6.674;2023-03-01T16:10:42;14.90;26.70
33105;DHT22;19476;51.448;6.674;2023-03-01T16:13:14;14.80;26.70
33105;DHT22;19476;51.448;6.674;2023-03-01T16:15:40;14.70;26.80
33105;DHT22;19476;51.448;6.674;2023-03-01T16:18:06;14.70;26.80
33105;DHT22;19476;51.448;6.674;2023-03-01T16:20:36;14.60;26.70
33105;DHT22;19476;51.448;6.674;2023-03-01T16:23:06;14.50;26.80
33105;DHT22;19476;51.448;6.674;2023-03-01T16:25:32;14.40;26.90
33105;DHT22;19476;51.448;6.674;2023-03-01T16:27:59;14.40;26.90
33105;DHT22;19476;51.448;6.674;2023-03-01T16:30:29;14.40;27.00
33105;DHT22;19476;51.448;6.674;2023-03-01T16:32:55;14.30;27.10
33105;DHT22;19476;51.448;6.674;2023-03-01T16:35:21;14.20;27.10
33105;DHT22;19476;51.448;6.674;2023-03-01T16:37:48;14.20;27.30
33105;DHT22;19476;51.448;6.674;2023-03-01T16:40:23;14.20;27.30
33105;DHT22;19476;51.448;6.674;2023-03-01T16:42:51;14.10;27.40
33105;DHT22;19476;51.448;6.674;2023-03-01T16:45:18;14.10;27.40
33105;DHT22;19476;51.448;6.674;2023-03-01T16:47:44;14.00;27.50
33105;DHT22;19476;51.448;6.674;2023-03-01T16:50:10;14.00;27.60
33105;DHT22;19476;51.448;6.674;2023-03-01T16:52:37;13.90;28.20
33105;DHT22;19476;51.448;6.674;2023-03-01T16:55:05;13.90;27.90
33105;DHT22;19476;51.448;6.674;2023-03-01T16:57:36;13.90;28.10
33105;DHT22;19476;51.448;6.674;2023-03-01T17:00:04;13.80;28.20
33105;DHT22;19476;51.448;6.674;2023-03-01T17:02:33;13.80;28.20
33105;DHT22;19476;51.448;6.674;2023-03-01T17:04:59;13.80;28.20
33105;DHT22;19476;51.448;6.674;2023-03-01T17:07:25;13.70;28.10
33105;DHT22;19476;51.448;6.674;2023-03-01T17:09:50;13.70;28.20
33105;DHT22;19476;51.448;6.674;2023-03-01T17:12:16;13.60;28.30
33105;DHT22;19476;51.448;6.674;2023-03-01T17:14:42;13.60;28.30
33105;DHT22;19476;51.448;6.674;2023-03-01T17:17:09;13.60;28.40
33105;DHT22;19476;51.448;6.674;2023-03-01T17:19:36;13.50;28.50
33105;DHT22;19476;51.448;6.674;2023-03-01T17:22:06;13.50;28.50
33105;DHT22;19476;51.448;6.674;2023-03-01T17:24:36;13.50;28.60
33105;DHT22;19476;51.448;6.674;2023-03-01T17:27:03;13.50;28.60
33105;DHT22;19476;51.448;6.674;2023-03-01T17:29:29;13.40;28.70
33105;DHT22;19476;51.448;6.674;2023-03-01T17:31:55;13.40;28.80
33105;DHT22;19476;51.448;6.674;2023-03-01T17:34:21;13.40;28.80
33105;DHT22;19476;51.448;6.674;2023-03-01T17:36:48;13.40;28.90
33105;DHT22;19476;51.448;6.674;2023-03-01T17:39:15;13.30;28.90
33105;DHT22;19476;51.448;6.674;2023-03-01T17:41:42;13.30;28.90